createdAt,value
2017-09-06T08:56:10.029Z,31.65
2017-09-06T08:58:37.635Z,31.80
2017-09-06T09:01:05.239Z,31.85
2017-09-06T09:03:32.760Z,31.93
2017-09-06T09:06:00.364Z,32.03
2017-09-06T09:08:27.941Z,32.08
2017-09-06T09:10:55.485Z,32.14
2017-09-06T09:13:23.056Z,32.27
2017-09-06T09:15:50.702Z,32.37
2017-09-06T09:18:18.297Z,32.49
2017-09-06T09:20:45.917Z,32.63
2017-09-06T09:23:13.577Z,32.79
2017-09-06T09:25:41.159Z,32.92
2017-09-06T09:28:08.781Z,32.97
2017-09-06T09:30:36.324Z,33.09
2017-09-06T09:33:03.896Z,33.06
2017-09-06T09:35:31.514Z,33.06
2017-09-06T09:37:59.112Z,33.07
2017-09-06T09:40:26.712Z,33.04
2017-09-06T09:42:54.410Z,33.08
2017-09-06T09:45:22.033Z,33.12
2017-09-06T09:47:49.690Z,33.04
2017-09-06T09:50:17.359Z,33.09
2017-09-06T09:52:44.946Z,33.12
2017-09-06T10:56:00.880Z,30.47
2017-09-06T10:58:28.453Z,30.70
2017-09-06T11:00:56.046Z,30.99
2017-09-06T11:03:23.626Z,31.19
2017-09-06T11:05:51.160Z,31.37
2017-09-06T11:08:18.692Z,31.45
2017-09-06T11:10:46.290Z,31.49
2017-09-06T11:13:13.961Z,31.56
2017-09-06T11:15:41.504Z,31.48
2017-09-06T11:18:09.131Z,31.44
2017-09-06T11:20:36.729Z,31.47
2017-09-06T11:23:04.321Z,31.46
2017-09-06T11:25:31.905Z,31.44
2017-09-06T11:27:59.493Z,31.44
2017-09-06T11:30:27.078Z,31.42
2017-09-06T11:32:54.747Z,31.44
2017-09-06T11:35:22.347Z,31.35
2017-09-06T11:37:49.921Z,31.30
2017-09-06T11:40:17.526Z,31.20
2017-09-06T11:42:45.083Z,31.13
2017-09-06T11:45:12.696Z,31.12
2017-09-06T12:55:51.596Z,28.14
2017-09-06T12:58:19.202Z,28.25
2017-09-06T13:00:46.836Z,28.40
2017-09-06T13:03:14.451Z,28.47
2017-09-06T13:05:42.057Z,28.53
2017-09-06T13:08:09.858Z,28.52
2017-09-06T13:10:37.722Z,28.55
2017-09-06T13:13:05.374Z,28.56
2017-09-06T13:15:33.024Z,28.57
2017-09-06T13:18:00.669Z,28.55
2017-09-06T13:20:28.249Z,28.53
2017-09-06T13:22:57.400Z,28.55
2017-09-06T13:25:27.844Z,28.56
2017-09-06T13:27:55.448Z,28.49
2017-09-06T13:30:23.063Z,28.43
2017-09-06T13:32:50.746Z,28.38
2017-09-06T13:35:18.415Z,28.33
2017-09-06T13:37:45.950Z,28.28
2017-09-06T13:40:13.628Z,28.22
2017-09-06T13:42:42.938Z,28.15
2017-09-06T13:45:10.500Z,28.11
2017-09-06T13:47:38.112Z,28.10
2017-09-06T13:50:05.649Z,28.09
2017-09-06T13:52:33.205Z,28.10
2017-09-06T14:55:42.336Z,25.24
2017-09-06T14:58:09.971Z,25.43
2017-09-06T15:00:37.536Z,25.61
2017-09-06T15:03:05.166Z,25.77
2017-09-06T15:05:32.713Z,25.87
2017-09-06T15:08:00.330Z,25.95
2017-09-06T15:10:28.045Z,26.00
2017-09-06T15:12:55.621Z,26.04
2017-09-06T15:15:23.224Z,26.05
2017-09-06T15:17:50.938Z,26.07
2017-09-06T15:20:18.521Z,26.07
2017-09-06T15:22:46.129Z,26.07
2017-09-06T15:25:13.820Z,26.05
2017-09-06T15:27:41.454Z,26.02
2017-09-06T15:30:09.024Z,26.01
2017-09-06T15:32:36.696Z,26.05
2017-09-06T15:35:04.282Z,26.25
2017-09-06T15:37:31.868Z,26.43
2017-09-06T15:39:59.731Z,26.57
2017-09-06T15:42:27.271Z,26.72
2017-09-06T15:44:54.878Z,26.84
2017-09-06T15:47:22.454Z,26.98
2017-09-06T15:49:50.043Z,27.12
2017-09-06T15:52:17.641Z,27.24
2017-09-06T16:55:33.231Z,26.23
2017-09-06T16:58:00.804Z,26.49
2017-09-06T17:00:28.405Z,26.65
2017-09-06T17:02:56.150Z,26.54
2017-09-06T17:05:23.722Z,26.35
2017-09-06T17:07:51.253Z,26.11
2017-09-06T17:10:18.901Z,25.87
2017-09-06T17:12:46.476Z,25.66
2017-09-06T18:55:25.178Z,24.13
2017-09-06T18:57:52.734Z,24.35
2017-09-06T19:00:20.262Z,24.55
2017-09-06T19:02:47.881Z,24.72
2017-09-06T19:05:15.420Z,24.90
2017-09-06T19:07:42.995Z,25.00
2017-09-06T19:10:10.591Z,25.06
2017-09-06T19:12:38.122Z,25.12
2017-09-06T19:15:05.647Z,25.17
2017-09-06T19:17:33.236Z,25.27
2017-09-06T19:20:00.759Z,25.38
2017-09-06T19:22:28.317Z,25.47
2017-09-06T19:24:55.948Z,25.54
2017-09-06T20:55:17.822Z,23.62
2017-09-06T20:57:45.383Z,23.81
2017-09-06T21:00:12.916Z,24.03
2017-09-06T21:02:40.527Z,24.22
2017-09-06T21:05:08.068Z,24.35
2017-09-06T21:07:35.742Z,24.47
2017-09-06T21:10:03.344Z,24.54
2017-09-06T21:12:30.885Z,24.61
2017-09-06T21:14:58.530Z,24.66
2017-09-06T21:17:26.175Z,24.69
2017-09-06T21:19:53.744Z,24.71
2017-09-06T21:22:21.275Z,24.73
2017-09-06T21:24:48.834Z,24.74
2017-09-06T21:27:16.402Z,24.59
2017-09-06T21:29:43.974Z,24.25
2017-09-06T21:32:11.641Z,23.89
2017-09-06T21:34:39.234Z,23.54
2017-09-06T21:37:06.823Z,23.20
2017-09-06T21:39:34.450Z,22.86
2017-09-06T21:42:02.039Z,22.61
2017-09-06T21:44:29.638Z,22.37
2017-09-06T21:46:57.288Z,22.19
2017-09-06T21:49:24.812Z,21.97
2017-09-06T21:51:52.344Z,21.77
2017-09-06T22:55:06.510Z,17.76
2017-09-06T22:57:34.086Z,17.93
2017-09-06T23:00:01.660Z,18.11
2017-09-06T23:02:29.293Z,18.25
2017-09-06T23:04:56.997Z,18.32
2017-09-06T23:07:24.567Z,18.38
2017-09-06T23:09:52.227Z,18.43
2017-09-06T23:12:19.817Z,18.45
2017-09-06T23:14:47.438Z,18.48
2017-09-06T23:17:16.572Z,18.48
2017-09-06T23:19:44.173Z,18.47
2017-09-06T23:22:11.750Z,18.43
